createdAt,value
2023-09-06T00:02:05.335Z,6.90
2023-09-06T00:07:10.266Z,5.60
2023-09-06T00:12:14.708Z,5.90
2023-09-06T00:17:18.003Z,6.50
2023-09-06T00:22:21.411Z,7.20
2023-09-06T00:27:25.737Z,6.10
2023-09-06T00:32:28.731Z,7.70
2023-09-06T00:37:44.368Z,6.80
2023-09-06T00:42:57.829Z,6.70
2023-09-06T00:48:03.136Z,8.40
2023-09-06T00:53:08.771Z,7.30
2023-09-06T00:58:18.477Z,7.50
2023-09-06T01:03:21.017Z,6.70
2023-09-06T01:08:40.828Z,8.00
2023-09-06T01:13:44.650Z,8.40
2023-09-06T01:18:48.296Z,7.50
2023-09-06T01:23:52.973Z,8.40
2023-09-06T01:28:56.653Z,9.20
2023-09-06T01:34:00.848Z,7.50
2023-09-06T01:39:08.028Z,9.90
2023-09-06T01:44:12.999Z,9.10
2023-09-06T01:49:16.627Z,7.50
2023-09-06T01:54:20.324Z,7.80
2023-09-06T01:59:24.482Z,8.20
2023-09-06T02:04:29.158Z,8.00
2023-09-06T02:09:32.494Z,8.90
2023-09-06T02:14:35.553Z,7.40
2023-09-06T02:19:39.678Z,7.30
2023-09-06T02:24:42.984Z,8.60
2023-09-06T02:29:46.531Z,7.80
2023-09-06T02:34:50.508Z,7.60
2023-09-06T02:39:56.857Z,8.70
2023-09-06T02:45:00.468Z,6.60
2023-09-06T02:50:08.005Z,6.50
2023-09-06T02:55:14.656Z,8.30
2023-09-06T03:00:27.900Z,7.50
2023-09-06T03:05:31.407Z,8.60
2023-09-06T03:10:35.992Z,7.40
2023-09-06T03:15:39.021Z,6.90
2023-09-06T03:20:44.549Z,6.80
2023-09-06T03:25:55.760Z,6.10
2023-09-06T03:31:00.813Z,7.60
2023-09-06T03:36:09.085Z,6.60
2023-09-06T03:41:12.608Z,8.10
2023-09-06T03:46:18.454Z,7.70
2023-09-06T03:51:23.061Z,7.00
2023-09-06T03:56:28.217Z,5.70
2023-09-06T04:01:34.714Z,8.10
2023-09-06T04:06:38.325Z,6.60
2023-09-06T04:11:42.513Z,6.70
2023-09-06T04:16:46.794Z,6.80
2023-09-06T04:21:51.190Z,6.20
2023-09-06T04:26:53.635Z,6.00
2023-09-06T04:31:56.685Z,6.80
2023-09-06T04:36:59.594Z,6.40
2023-09-06T04:42:02.407Z,5.90
2023-09-06T04:47:05.673Z,6.70
2023-09-06T04:52:09.164Z,7.00
2023-09-06T04:57:12.731Z,7.20
2023-09-06T05:02:18.343Z,7.30
2023-09-06T05:07:21.921Z,7.30
2023-09-06T05:12:25.098Z,6.70
2023-09-06T05:17:28.457Z,7.90
2023-09-06T05:22:32.351Z,8.60
2023-09-06T05:27:37.231Z,8.20
2023-09-06T05:32:41.174Z,9.10
2023-09-06T05:37:44.519Z,10.10
2023-09-06T05:42:48.377Z,9.00
2023-09-06T05:47:52.919Z,8.20
2023-09-06T05:52:56.636Z,9.00
2023-09-06T05:58:00.283Z,9.70
2023-09-06T06:03:03.588Z,8.90
2023-09-06T06:08:07.687Z,8.60
2023-09-06T06:13:12.584Z,8.50
2023-09-06T06:18:17.313Z,8.50
2023-09-06T06:23:20.379Z,8.30
2023-09-06T06:28:24.302Z,8.20
2023-09-06T06:33:28.676Z,8.40
2023-09-06T06:38:32.264Z,7.40
2023-09-06T06:43:39.070Z,8.20
2023-09-06T06:48:43.782Z,9.00
2023-09-06T06:53:46.633Z,8.40
2023-09-06T06:58:50.020Z,7.90
2023-09-06T07:03:54.189Z,7.20
2023-09-06T07:08:58.428Z,8.50
2023-09-06T07:14:01.390Z,7.00
2023-09-06T07:19:05.542Z,8.00
2023-09-06T07:24:11.394Z,6.90
2023-09-06T07:29:14.930Z,7.20
2023-09-06T07:34:19.387Z,7.50
2023-09-06T07:39:23.393Z,7.20
2023-09-06T07:44:31.159Z,5.90
2023-09-06T07:49:34.657Z,5.70
2023-09-06T07:54:39.153Z,4.70
2023-09-06T07:59:42.355Z,5.40
2023-09-06T08:04:48.368Z,5.60
2023-09-06T08:09:54.826Z,4.20
2023-09-06T08:14:58.133Z,4.40
2023-09-06T08:20:02.335Z,6.00
2023-09-06T08:25:07.033Z,4.70
2023-09-06T08:30:13.227Z,5.00
2023-09-06T08:35:19.319Z,4.30
2023-09-06T08:40:23.360Z,4.90
2023-09-06T08:45:26.975Z,5.00
2023-09-06T08:50:35.574Z,4.90
2023-09-06T08:55:39.131Z,4.90
2023-09-06T09:00:43.491Z,4.60
2023-09-06T09:05:47.220Z,3.40
2023-09-06T09:11:12.374Z,3.70
2023-09-06T09:16:17.966Z,3.50
2023-09-06T09:26:26.255Z,3.60
2023-09-06T09:31:29.884Z,4.50
2023-09-06T09:36:35.358Z,3.10
2023-09-06T09:41:57.412Z,3.00
2023-09-06T09:47:31.750Z,3.80
2023-09-06T09:52:45.795Z,4.20
2023-09-06T09:57:54.264Z,3.30
2023-09-06T10:03:04.415Z,4.70
2023-09-06T10:08:11.013Z,4.30
2023-09-06T10:13:16.737Z,3.90
2023-09-06T10:18:19.860Z,3.80
2023-09-06T10:23:22.437Z,3.70
2023-09-06T10:28:25.040Z,3.70
2023-09-06T10:33:37.344Z,4.20
2023-09-06T10:38:57.149Z,4.30
2023-09-06T10:44:02.892Z,4.20
2023-09-06T10:54:42.806Z,4.30
2023-09-06T11:00:15.077Z,3.60
2023-09-06T11:05:38.554Z,4.20
2023-09-06T11:10:42.777Z,4.40
2023-09-06T11:15:46.598Z,3.80
2023-09-06T11:20:51.722Z,4.10
2023-09-06T11:31:05.756Z,4.30
2023-09-06T11:36:12.899Z,3.40
2023-09-06T11:41:18.478Z,4.10
2023-09-06T11:51:29.466Z,3.90
2023-09-06T11:56:34.971Z,4.00
2023-09-06T12:01:45.946Z,3.90
2023-09-06T12:06:53.753Z,3.70
2023-09-06T12:11:57.574Z,3.90
2023-09-06T12:17:01.732Z,5.60
2023-09-06T12:22:06.340Z,3.90
2023-09-06T12:27:10.558Z,3.70
2023-09-06T12:32:13.969Z,4.20
2023-09-06T12:37:19.790Z,5.50
2023-09-06T12:42:24.116Z,3.60
2023-09-06T12:47:29.658Z,4.20
2023-09-06T12:52:36.088Z,4.10
2023-09-06T12:57:39.758Z,4.90
2023-09-06T13:02:42.980Z,3.80
2023-09-06T13:07:46.541Z,4.10
2023-09-06T13:12:49.851Z,3.90
2023-09-06T13:17:52.664Z,4.20
2023-09-06T13:22:55.544Z,4.10
2023-09-06T13:27:59.070Z,3.90
2023-09-06T13:33:01.698Z,3.30
2023-09-06T13:38:04.258Z,5.60
2023-09-06T13:43:07.136Z,3.80
2023-09-06T13:48:11.679Z,3.70
2023-09-06T13:53:15.509Z,3.80
2023-09-06T13:58:18.543Z,3.60
2023-09-06T14:03:21.549Z,3.80
2023-09-06T14:08:25.760Z,3.40
2023-09-06T14:13:29.458Z,4.00
2023-09-06T14:18:33.867Z,3.70
2023-09-06T14:23:37.165Z,3.80
2023-09-06T14:28:41.254Z,4.00
2023-09-06T14:33:45.157Z,4.20
2023-09-06T14:38:48.242Z,8.60
2023-09-06T14:43:52.259Z,3.80
2023-09-06T14:48:55.259Z,4.20
2023-09-06T14:53:58.712Z,4.20
2023-09-06T14:59:02.296Z,3.20
2023-09-06T15:04:07.519Z,3.60
2023-09-06T15:14:13.895Z,12.80
2023-09-06T15:19:18.292Z,4.90
2023-09-06T15:24:21.832Z,4.30
2023-09-06T15:29:26.178Z,4.50
2023-09-06T15:34:29.355Z,3.70
2023-09-06T15:39:36.853Z,3.20
2023-09-06T15:44:39.400Z,3.60
2023-09-06T15:49:44.516Z,3.00
2023-09-06T15:54:48.529Z,3.40
2023-09-06T15:59:52.281Z,3.90
2023-09-06T16:05:04.351Z,3.60
2023-09-06T16:10:11.959Z,6.00
2023-09-06T16:15:24.272Z,3.60
2023-09-06T16:20:28.841Z,3.80
2023-09-06T16:25:39.399Z,4.20
2023-09-06T16:30:45.666Z,4.00
2023-09-06T16:35:50.198Z,3.30
2023-09-06T16:40:57.119Z,3.40
2023-09-06T16:51:07.233Z,4.30
2023-09-06T16:56:10.878Z,4.30
2023-09-06T17:01:15.472Z,4.00
2023-09-06T17:06:17.717Z,3.40
2023-09-06T17:11:21.872Z,3.80
2023-09-06T17:16:28.387Z,3.00
2023-09-06T17:21:38.703Z,4.20
2023-09-06T17:26:47.088Z,3.90
2023-09-06T17:31:53.625Z,4.40
2023-09-06T17:36:58.742Z,4.00
2023-09-06T17:42:05.139Z,4.10
2023-09-06T17:47:09.105Z,4.50
2023-09-06T17:52:17.772Z,5.90
2023-09-06T17:57:24.456Z,6.10
2023-09-06T18:02:28.777Z,6.40
2023-09-06T18:07:35.351Z,9.00
2023-09-06T18:12:40.960Z,10.50
2023-09-06T18:17:46.715Z,10.10
2023-09-06T18:22:52.088Z,12.40
2023-09-06T18:27:56.213Z,9.70
2023-09-06T18:32:59.990Z,11.10
2023-09-06T18:38:02.744Z,9.60
2023-09-06T18:43:06.996Z,10.70
2023-09-06T18:48:15.353Z,14.20
2023-09-06T18:53:18.095Z,12.30
2023-09-06T18:58:22.960Z,15.00
2023-09-06T19:03:29.345Z,14.80
2023-09-06T19:08:34.471Z,16.10
2023-09-06T19:13:37.715Z,13.50
2023-09-06T19:18:40.671Z,11.40
2023-09-06T19:23:45.915Z,8.50
2023-09-06T19:28:48.809Z,7.70
2023-09-06T19:33:52.943Z,6.10
2023-09-06T19:38:56.901Z,7.80
2023-09-06T19:44:01.160Z,6.40
2023-09-06T19:49:07.112Z,6.80
2023-09-06T19:54:15.090Z,5.60
2023-09-06T19:59:20.529Z,7.30
2023-09-06T20:04:26.082Z,7.30
2023-09-06T20:09:33.092Z,7.40
2023-09-06T20:14:38.277Z,5.50
2023-09-06T20:19:43.267Z,6.30
2023-09-06T20:24:49.896Z,6.90
2023-09-06T20:29:54.424Z,7.70
2023-09-06T20:34:59.232Z,8.60
2023-09-06T20:40:05.072Z,9.40
2023-09-06T20:45:09.104Z,8.20
2023-09-06T20:50:16.278Z,9.50
2023-09-06T20:55:20.703Z,8.50
2023-09-06T21:00:27.657Z,8.80
2023-09-06T21:05:37.551Z,9.60
2023-09-06T21:10:42.877Z,9.10
2023-09-06T21:15:50.672Z,10.60
2023-09-06T21:20:54.139Z,12.00
2023-09-06T21:25:58.787Z,9.90
2023-09-06T21:31:04.779Z,10.90
2023-09-06T21:36:09.858Z,14.50
2023-09-06T21:41:13.318Z,12.30
2023-09-06T21:46:17.327Z,11.10
2023-09-06T21:51:21.310Z,13.70
2023-09-06T21:56:24.798Z,11.10
2023-09-06T22:01:29.353Z,11.10
2023-09-06T22:06:35.803Z,10.10
2023-09-06T22:11:42.413Z,10.50
2023-09-06T22:16:47.140Z,11.00
2023-09-06T22:21:52.355Z,11.30
2023-09-06T22:26:56.819Z,12.00
2023-09-06T22:32:01.281Z,12.00
2023-09-06T22:37:06.468Z,11.40
2023-09-06T22:42:09.537Z,9.90
2023-09-06T22:47:13.169Z,10.90
2023-09-06T22:52:16.369Z,12.60
2023-09-06T22:57:20.415Z,10.40
2023-09-06T23:02:25.178Z,10.70
2023-09-06T23:07:28.746Z,11.30
2023-09-06T23:12:33.867Z,11.00
2023-09-06T23:17:40.004Z,10.00
2023-09-06T23:22:45.337Z,9.20
2023-09-06T23:27:50.774Z,10.50
2023-09-06T23:33:01.963Z,9.70
2023-09-06T23:38:09.218Z,9.70
2023-09-06T23:43:13.809Z,9.30
2023-09-06T23:48:18.440Z,10.20
2023-09-06T23:53:26.948Z,8.80
2023-09-06T23:58:31.661Z,9.40
